Disclaimer

Please do not use the information listed here in-flight or in-navigation, as they are not provided to us by the airports but are provided by volunteers, so they might be outdated.

Search


Regions


Airport information page

Radio informations:
OUJDA TWR - 118.2 MHz
Automatic Terminal Information Service (ATIS) - 121.6 MHz
OUJDA APP - 136.6 MHz

Airport informations:
Latitude: 34° 47' 13.74" N
Longitude: 001° 55' 26.35" W
Elevation: 1535 feet - 468 meters
Operating hours: 24 hour operations
Operating agency: Civil government, landing fees and diplomatic clearance may be required
Timezone: UTC 0
Fuel: Jet A1, without icing nhibitor.

100/130 MIL Spec, low lead, aviation gasoline (BLUE)

Runway information:
06/24 - 9843 x 148 feet< - >3000 x 45 meters

Recent METARs:
GMFO 130200Z VRB02KT CAVOK 06/04 Q1020 NOSIG
GMFO 130200Z VRB02KT CAVOK 06/04 Q1020 NOSIG
GMFO 130300Z 19010KT 160V220 CAVOK 09/06 Q1020 NOSIG

Airport on the map: